Time;durP1;ratioP1;P1;durP2;ratioP2;P2;SDS_P1;SDS_P2;PMS_P1;PMS_P2;Temp;Humidity;BMP_temperature;BMP_pressure;BME280_temperature;BME280_humidity;BME280_pressure;Samples;Min_cycle;Max_cycle;Signal;HPM_P1;HPM_P2
2023/08/02 00:01:36;;;;;;;;;;;;;;;31.53;32.67;97044.44;5050621;27;19917;-83
2023/08/02 00:04:02;;;;;;;;;;;;;;;31.46;32.89;97047.75;5051402;28;20331;-84
2023/08/02 00:06:28;;;;;;;;;;;;;;;31.61;32.66;97051.16;5051542;28;19923;-84
2023/08/02 00:08:54;;;;;;;;;;;;;;;31.67;31.99;97049.91;5051601;28;20015;-84
2023/08/02 00:11:20;;;;;;;;;;;;;;;31.22;32.95;97048.13;5051312;28;19925;-84
2023/08/02 00:13:46;;;;;;;;;;;;;;;31.21;33.17;97050.19;5051507;28;19927;-84
2023/08/02 00:16:14;;;;;;;;;;;;;;;31.54;32.50;97049.59;5050692;28;19939;-84
2023/08/02 00:18:40;;;;;;;;;;;;;;;31.46;32.45;97050.59;5051150;27;19961;-84
2023/08/02 00:21:06;;;;;;;;;;;;;;;31.51;32.42;97058.38;5051554;28;19916;-84
2023/08/02 00:23:32;;;;;;;;;;;;;;;31.60;32.24;97061.75;5051345;28;19917;-84
2023/08/02 00:25:58;;;;;;;;;;;;;;;31.83;31.94;97069.06;5051324;28;19954;-83
2023/08/02 00:28:24;;;;;;;;;;;;;;;31.73;32.33;97073.41;5051402;28;20046;-83
2023/08/02 00:30:50;;;;;;;;;;;;;;;31.74;32.14;97060.00;5060008;28;19981;-83
2023/08/02 00:33:16;;;;;;;;;;;;;;;31.64;32.26;97061.50;5070273;28;20446;-83
2023/08/02 00:35:46;;;;;;;;;;;;;;;31.74;32.33;97071.34;5051375;28;19962;-83
2023/08/02 00:38:13;;;;;;;;;;;;;;;31.79;32.34;97060.00;5051406;28;19917;-83
2023/08/02 00:40:39;;;;;;;;;;;;;;;31.93;31.85;97064.69;5050871;28;20247;-83
2023/08/02 00:43:05;;;;;;;;;;;;;;;32.02;31.80;97066.56;5050965;28;19921;-83
2023/08/02 00:45:32;;;;;;;;;;;;;;;32.00;32.08;97066.28;5051267;28;20374;-84
2023/08/02 00:47:58;;;;;;;;;;;;;;;32.02;31.77;97067.31;5050741;28;19924;-84
2023/08/02 00:50:26;;;;;;;;;;;;;;;31.65;32.44;97060.22;5051412;28;20389;-83
2023/08/02 00:52:52;;;;;;;;;;;;;;;31.35;33.06;97054.91;5049786;28;19924;-84
2023/08/02 00:55:18;;;;;;;;;;;;;;;31.27;33.58;97067.25;5050777;28;19917;-84
2023/08/02 00:57:44;;;;;;;;;;;;;;;31.45;33.22;97075.34;5050916;28;19916;-84
2023/08/02 01:00:10;;;;;;;;;;;;;;;31.57;32.97;97068.44;5050868;28;19923;-84
2023/08/02 01:02:36;;;;;;;;;;;;;;;31.66;32.83;97076.75;5066165;28;19935;-83
2023/08/02 01:05:03;;;;;;;;;;;;;;;31.64;32.32;97078.53;5069652;27;19916;-84
2023/08/02 01:07:29;;;;;;;;;;;;;;;31.62;32.23;97084.72;5069483;27;19917;-84
2023/08/02 01:10:07;;;;;;;;;;;;;;;31.50;32.64;97085.97;5070817;28;20329;-84
2023/08/02 01:12:34;;;;;;;;;;;;;;;31.23;33.12;97089.38;5070374;28;20019;-84
2023/08/02 01:15:02;;;;;;;;;;;;;;;31.01;33.37;97083.56;5069352;27;19961;-84
2023/08/02 01:17:30;;;;;;;;;;;;;;;31.24;33.17;97079.59;5065447;28;19931;-84
2023/08/02 01:20:05;;;;;;;;;;;;;;;31.31;33.03;97084.78;5055744;28;19978;-84
2023/08/02 01:22:32;;;;;;;;;;;;;;;31.51;32.49;97087.50;5064651;27;19917;-84
2023/08/02 01:25:00;;;;;;;;;;;;;;;31.59;32.18;97077.22;5062579;28;19974;-84
2023/08/02 01:27:55;;;;;;;;;;;;;;;31.69;32.20;97084.25;5070578;28;19920;-84
2023/08/02 01:30:23;;;;;;;;;;;;;;;31.57;32.37;97076.19;5074216;28;19917;-84
2023/08/02 01:32:50;;;;;;;;;;;;;;;31.51;32.16;97078.22;5050137;28;20404;-84
2023/08/02 01:35:16;;;;;;;;;;;;;;;31.54;32.33;97075.13;5050559;28;19955;-84
2023/08/02 01:37:42;;;;;;;;;;;;;;;31.79;30.98;97082.72;5050549;28;19924;-84
2023/08/02 01:40:09;;;;;;;;;;;;;;;31.63;32.58;97085.47;5050220;28;19917;-84
2023/08/02 01:42:35;;;;;;;;;;;;;;;31.73;32.46;97092.50;5061813;28;20366;-84
2023/08/02 01:45:01;;;;;;;;;;;;;;;31.74;32.23;97091.22;5059280;28;19973;-84
2023/08/02 01:47:27;;;;;;;;;;;;;;;31.79;32.17;97090.44;5069981;28;19931;-84
2023/08/02 01:49:53;;;;;;;;;;;;;;;31.81;32.37;97085.81;5070012;28;19913;-84
2023/08/02 01:52:19;;;;;;;;;;;;;;;31.89;31.42;97094.63;5070119;28;20301;-84
2023/08/02 01:54:45;;;;;;;;;;;;;;;31.87;31.77;97091.53;5070290;27;19913;-83
2023/08/02 01:57:11;;;;;;;;;;;;;;;31.69;32.29;97101.28;5070010;28;20278;-83
2023/08/02 01:59:37;;;;;;;;;;;;;;;31.59;32.12;97094.25;5057786;28;19917;-83
2023/08/02 02:02:03;;;;;;;;;;;;;;;31.55;32.44;97090.91;5049885;28;19956;-84
2023/08/02 02:04:29;;;;;;;;;;;;;;;31.69;31.79;97098.44;5050007;28;19955;-83
2023/08/02 02:06:55;;;;;;;;;;;;;;;31.83;31.90;97097.47;5050043;28;20293;-83
2023/08/02 02:09:21;;;;;;;;;;;;;;;31.95;31.70;97107.56;5049932;28;19959;-84
2023/08/02 02:11:47;;;;;;;;;;;;;;;31.78;31.80;97097.44;5049709;28;19932;-84
2023/08/02 02:14:14;;;;;;;;;;;;;;;31.68;31.95;97102.56;5049743;28;19917;-84
2023/08/02 02:16:40;;;;;;;;;;;;;;;31.70;31.35;97102.03;5061863;28;19924;-84
2023/08/02 02:19:06;;;;;;;;;;;;;;;31.50;32.03;97108.66;5071886;27;19916;-84
2023/08/02 02:21:32;;;;;;;;;;;;;;;31.46;31.56;97110.19;5071805;28;19940;-84
2023/08/02 02:23:58;;;;;;;;;;;;;;;31.39;31.86;97114.25;5053154;28;19920;-84
2023/08/02 02:26:25;;;;;;;;;;;;;;;31.27;31.18;97104.13;5053185;28;19916;-84
2023/08/02 02:28:51;;;;;;;;;;;;;;;31.16;31.71;97121.03;5052987;28;19921;-84
2023/08/02 02:31:17;;;;;;;;;;;;;;;31.05;31.39;97123.81;5053143;28;19927;-84
2023/08/02 02:33:43;;;;;;;;;;;;;;;30.84;32.04;97122.31;5065504;28;20237;-84
2023/08/02 02:36:09;;;;;;;;;;;;;;;30.88;31.68;97125.72;5073150;28;19923;-84
2023/08/02 02:38:35;;;;;;;;;;;;;;;30.84;32.29;97125.94;5073196;28;19930;-84
2023/08/02 02:41:01;;;;;;;;;;;;;;;30.88;31.75;97132.19;5073173;28;19924;-84
2023/08/02 02:43:27;;;;;;;;;;;;;;;31.02;31.72;97136.94;5071885;28;19920;-83
2023/08/02 02:45:53;;;;;;;;;;;;;;;31.15;31.30;97139.34;5053028;28;20007;-83
2023/08/02 02:48:19;;;;;;;;;;;;;;;30.69;32.23;97143.06;5052721;28;19963;-84
2023/08/02 02:50:45;;;;;;;;;;;;;;;30.55;32.87;97141.13;5065622;28;19968;-84
2023/08/02 02:53:11;;;;;;;;;;;;;;;30.58;32.91;97151.47;5072862;28;19964;-84
2023/08/02 02:55:37;;;;;;;;;;;;;;;30.57;32.96;97140.66;5072752;28;19922;-84
2023/08/02 02:58:03;;;;;;;;;;;;;;;30.79;32.58;97146.50;5072568;28;19917;-84
2023/08/02 03:00:31;;;;;;;;;;;;;;;30.98;32.24;97146.94;5071512;28;19965;-84
2023/08/02 03:02:57;;;;;;;;;;;;;;;31.11;32.24;97155.84;5053852;28;19921;-84
2023/08/02 03:05:23;;;;;;;;;;;;;;;31.12;32.18;97160.22;5052586;28;19971;-84
2023/08/02 03:07:49;;;;;;;;;;;;;;;31.09;32.30;97156.31;5053184;28;20423;-84
2023/08/02 03:10:15;;;;;;;;;;;;;;;31.36;31.75;97169.16;5052428;28;19917;-84
2023/08/02 03:12:41;;;;;;;;;;;;;;;31.59;31.61;97158.75;5052079;28;19925;-83
2023/08/02 03:15:08;;;;;;;;;;;;;;;31.51;31.54;97161.28;5052571;28;19934;-83
2023/08/02 03:17:34;;;;;;;;;;;;;;;31.64;31.97;97158.00;5052302;28;20097;-83
2023/08/02 03:20:00;;;;;;;;;;;;;;;31.70;31.79;97168.09;5052406;28;19917;-84
2023/08/02 03:22:26;;;;;;;;;;;;;;;31.71;31.60;97161.16;5051299;28;19924;-84
2023/08/02 03:24:52;;;;;;;;;;;;;;;31.60;31.62;97161.06;5065683;28;20272;-84
2023/08/02 03:27:18;;;;;;;;;;;;;;;31.51;32.01;97169.78;5072061;28;19921;-84
2023/08/02 03:29:44;;;;;;;;;;;;;;;31.48;32.37;97175.72;5053591;28;19999;-84
2023/08/02 03:32:10;;;;;;;;;;;;;;;31.55;31.92;97176.03;5072538;27;20006;-84
2023/08/02 03:34:36;;;;;;;;;;;;;;;31.63;32.07;97177.09;5072454;27;19931;-84
2023/08/02 03:37:02;;;;;;;;;;;;;;;31.72;31.65;97174.03;5070879;27;19978;-84
2023/08/02 03:39:28;;;;;;;;;;;;;;;31.71;32.02;97166.81;5072195;28;19917;-84
2023/08/02 03:41:54;;;;;;;;;;;;;;;31.72;32.16;97176.88;5057484;28;19921;-84
2023/08/02 03:44:21;;;;;;;;;;;;;;;31.82;32.10;97178.22;5051905;28;19965;-84
2023/08/02 03:46:47;;;;;;;;;;;;;;;31.61;31.96;97167.53;5052080;28;20416;-84
2023/08/02 03:49:13;;;;;;;;;;;;;;;31.38;32.65;97181.56;5052008;28;19932;-84
2023/08/02 03:51:39;;;;;;;;;;;;;;;31.19;32.50;97173.94;5052098;28;19928;-84
2023/08/02 03:54:05;;;;;;;;;;;;;;;30.96;32.79;97172.19;5052090;28;19921;-84
2023/08/02 03:56:31;;;;;;;;;;;;;;;30.86;33.33;97173.63;5050321;28;19923;-84
2023/08/02 03:58:57;;;;;;;;;;;;;;;31.10;32.60;97174.91;5066265;28;19967;-84
2023/08/02 04:01:23;;;;;;;;;;;;;;;31.30;32.17;97171.16;5065888;28;19924;-84
2023/08/02 04:03:49;;;;;;;;;;;;;;;31.17;32.68;97180.13;5051696;28;20416;-84
2023/08/02 04:06:15;;;;;;;;;;;;;;;31.25;32.42;97174.75;5051611;28;19939;-84
2023/08/02 04:08:41;;;;;;;;;;;;;;;31.34;32.49;97172.50;5051728;27;20362;-84
2023/08/02 04:11:08;;;;;;;;;;;;;;;31.77;33.04;97176.13;5051378;28;19921;-84
2023/08/02 04:13:34;;;;;;;;;;;;;;;32.16;32.98;97178.41;5051508;28;20297;-84
2023/08/02 04:16:01;;;;;;;;;;;;;;;32.43;33.47;97177.72;5064990;28;20289;-84
2023/08/02 04:18:27;;;;;;;;;;;;;;;32.58;32.02;97181.16;5071523;28;19920;-84
2023/08/02 04:20:53;;;;;;;;;;;;;;;32.58;32.94;97175.47;5071416;28;19916;-84
2023/08/02 04:23:19;;;;;;;;;;;;;;;32.51;33.58;97179.56;5071317;28;19924;-84
2023/08/02 04:25:45;;;;;;;;;;;;;;;32.82;33.79;97178.59;5071228;28;19920;-84
2023/08/02 04:28:11;;;;;;;;;;;;;;;33.28;34.32;97184.56;5071303;28;19917;-87
2023/08/02 04:30:37;;;;;;;;;;;;;;;33.70;33.57;97183.47;5071627;27;20020;-84
2023/08/02 04:33:03;;;;;;;;;;;;;;;33.90;32.42;97188.88;5070422;28;19916;-84
2023/08/02 04:35:29;;;;;;;;;;;;;;;33.75;33.18;97184.78;5071473;27;19961;-84
2023/08/02 04:37:55;;;;;;;;;;;;;;;34.01;34.16;97194.53;5071161;28;20322;-84
2023/08/02 04:40:21;;;;;;;;;;;;;;;34.34;32.63;97196.50;5070223;28;19961;-84
2023/08/02 04:42:47;;;;;;;;;;;;;;;34.57;33.48;97188.63;5067166;28;19929;-84
2023/08/02 04:45:14;;;;;;;;;;;;;;;34.88;32.86;97185.31;5051138;28;19921;-84
2023/08/02 04:47:40;;;;;;;;;;;;;;;34.99;31.76;97181.59;5050913;28;19923;-84
2023/08/02 04:50:06;;;;;;;;;;;;;;;34.84;31.29;97184.06;5063460;28;19916;-84
2023/08/02 04:52:33;;;;;;;;;;;;;;;34.95;31.98;97192.53;5070972;28;20000;-85
2023/08/02 04:54:59;;;;;;;;;;;;;;;34.90;31.25;97194.13;5070648;27;19916;-85
2023/08/02 04:57:25;;;;;;;;;;;;;;;34.81;31.40;97185.88;5071034;28;20011;-85
2023/08/02 04:59:54;;;;;;;;;;;;;;;34.95;32.48;97190.44;5070867;28;20413;-84
2023/08/02 05:02:28;;;;;;;;;;;;;;;35.02;30.04;97189.13;5057293;28;19925;-85
2023/08/02 05:04:54;;;;;;;;;;;;;;;34.81;30.27;97183.03;5050947;28;19921;-84
2023/08/02 05:07:21;;;;;;;;;;;;;;;34.94;30.30;97191.75;5051310;28;19916;-84
2023/08/02 05:09:47;;;;;;;;;;;;;;;34.80;31.77;97197.84;5050547;28;19917;-84
2023/08/02 05:12:13;;;;;;;;;;;;;;;34.72;31.41;97195.53;5050500;28;19925;-85
2023/08/02 05:14:39;;;;;;;;;;;;;;;34.70;31.03;97200.22;5050645;28;20365;-85
2023/08/02 05:17:07;;;;;;;;;;;;;;;34.71;32.14;97193.97;5050741;28;19913;-85
2023/08/02 05:19:33;;;;;;;;;;;;;;;34.93;32.99;97210.19;5050630;28;19917;-85
2023/08/02 05:22:00;;;;;;;;;;;;;;;35.10;33.96;97210.09;5050592;28;19916;-86
2023/08/02 05:24:26;;;;;;;;;;;;;;;35.36;33.87;97207.50;5050800;28;19921;-85
2023/08/02 05:26:51;;;;;;;;;;;;;;;35.53;31.56;97222.44;5050544;28;20388;-85
2023/08/02 05:29:18;;;;;;;;;;;;;;;35.65;33.31;97221.03;5050609;28;19916;-86
2023/08/02 05:31:44;;;;;;;;;;;;;;;35.74;33.00;97212.13;5050511;28;19917;-87
2023/08/02 05:34:10;;;;;;;;;;;;;;;35.64;29.69;97210.91;5050505;28;19923;-86
2023/08/02 05:36:36;;;;;;;;;;;;;;;35.25;28.66;97207.63;5050333;28;19912;-86
2023/08/02 05:39:02;;;;;;;;;;;;;;;35.02;29.88;97207.03;5050115;28;20020;-86
2023/08/02 05:41:28;;;;;;;;;;;;;;;34.99;31.00;97210.13;5050774;28;19968;-86
2023/08/02 05:43:54;;;;;;;;;;;;;;;34.98;31.22;97212.22;5050050;28;19955;-86
2023/08/02 05:46:20;;;;;;;;;;;;;;;35.01;33.30;97211.13;5050339;28;20011;-86
2023/08/02 05:48:46;;;;;;;;;;;;;;;35.24;34.64;97218.25;5050128;28;19992;-87
2023/08/02 05:51:12;;;;;;;;;;;;;;;35.54;33.84;97212.59;5050195;28;19917;-87
2023/08/02 05:53:38;;;;;;;;;;;;;;;35.68;33.15;97213.50;5053248;28;19912;-87
2023/08/02 05:56:04;;;;;;;;;;;;;;;35.69;32.68;97210.09;5053746;28;19940;-87
2023/08/02 05:58:30;;;;;;;;;;;;;;;35.72;29.76;97216.81;5054257;28;20369;-87
2023/08/02 06:00:56;;;;;;;;;;;;;;;35.70;30.41;97214.50;5053777;28;19960;-87
2023/08/02 06:03:22;;;;;;;;;;;;;;;35.88;29.86;97218.72;5053487;28;19973;-87
2023/08/02 06:05:49;;;;;;;;;;;;;;;36.00;29.46;97214.47;5053650;28;19964;-87
2023/08/02 06:08:15;;;;;;;;;;;;;;;36.11;27.53;97210.72;5053297;28;19916;-88
2023/08/02 06:10:41;;;;;;;;;;;;;;;36.18;29.65;97221.53;5053456;28;19944;-87
2023/08/02 06:13:07;;;;;;;;;;;;;;;36.20;28.76;97211.09;5053135;28;19925;-88
2023/08/02 06:15:33;;;;;;;;;;;;;;;35.98;26.63;97215.00;5051355;28;19921;-88
2023/08/02 06:17:59;;;;;;;;;;;;;;;35.88;28.98;97224.44;5053297;28;20012;-87
2023/08/02 06:20:25;;;;;;;;;;;;;;;35.84;27.77;97212.53;5053297;28;19956;-87
2023/08/02 06:22:51;;;;;;;;;;;;;;;34.98;27.51;97217.94;5053084;28;19969;-88
2023/08/02 06:25:17;;;;;;;;;;;;;;;35.12;29.53;97221.75;5053173;28;20425;-88
2023/08/02 06:27:43;;;;;;;;;;;;;;;35.08;28.40;97216.31;5053156;28;20015;-88
2023/08/02 06:30:09;;;;;;;;;;;;;;;35.05;27.90;97225.16;5053274;28;19948;-87
2023/08/02 06:32:35;;;;;;;;;;;;;;;34.58;28.47;97233.72;5053506;28;19923;-89
2023/08/02 06:35:01;;;;;;;;;;;;;;;34.66;29.88;97231.06;5055329;28;19920;-88
2023/08/02 06:37:27;;;;;;;;;;;;;;;34.63;29.22;97237.84;5056655;28;20288;-88
2023/08/02 06:39:53;;;;;;;;;;;;;;;34.62;29.25;97234.22;5055469;28;19930;-88
2023/08/02 06:42:19;;;;;;;;;;;;;;;34.39;30.35;97246.22;5071651;27;19920;-89
2023/08/02 06:44:45;;;;;;;;;;;;;;;34.47;29.14;97239.44;5062200;28;19990;-88
2023/08/02 06:47:11;;;;;;;;;;;;;;;34.78;29.68;97232.56;5053284;28;19963;-88
2023/08/02 06:49:37;;;;;;;;;;;;;;;34.73;28.38;97237.00;5052541;28;20435;-90
2023/08/02 06:52:03;;;;;;;;;;;;;;;34.27;27.49;97245.50;5052769;28;20285;-87
2023/08/02 06:54:29;;;;;;;;;;;;;;;34.32;31.13;97253.25;5052809;28;20011;-88
2023/08/02 06:56:55;;;;;;;;;;;;;;;34.28;31.60;97251.97;5052799;28;19913;-88
2023/08/02 06:59:22;;;;;;;;;;;;;;;34.51;30.36;97251.38;5053047;28;20289;-88
2023/08/02 07:01:48;;;;;;;;;;;;;;;34.69;30.20;97247.16;5052625;28;19913;-89
2023/08/02 07:04:14;;;;;;;;;;;;;;;35.03;29.99;97247.75;5052029;28;20421;-88
2023/08/02 07:06:40;;;;;;;;;;;;;;;34.40;28.20;97248.53;5052746;28;19917;-88
2023/08/02 07:09:06;;;;;;;;;;;;;;;34.49;29.01;97251.13;5051619;28;19920;-88
2023/08/02 07:11:32;;;;;;;;;;;;;;;34.74;28.19;97246.34;5052479;28;19920;-88
2023/08/02 07:13:58;;;;;;;;;;;;;;;34.64;29.63;97245.88;5052468;28;19925;-88
2023/08/02 07:16:24;;;;;;;;;;;;;;;35.07;27.72;97240.47;5052508;28;19961;-88
2023/08/02 07:18:51;;;;;;;;;;;;;;;35.51;28.18;97245.06;5052226;28;19916;-89
2023/08/02 07:21:17;;;;;;;;;;;;;;;35.78;29.65;97246.88;5053189;28;19916;-88
2023/08/02 07:23:43;;;;;;;;;;;;;;;35.41;25.57;97246.66;5052304;28;20496;-88
2023/08/02 07:26:09;;;;;;;;;;;;;;;35.12;29.26;97248.22;5052385;28;19962;-88
2023/08/02 07:28:35;;;;;;;;;;;;;;;34.84;28.37;97253.28;5051350;28;19921;-88
2023/08/02 07:31:08;;;;;;;;;;;;;;;35.08;30.32;97252.66;5051005;28;19920;-88
2023/08/02 07:33:34;;;;;;;;;;;;;;;35.29;29.35;97257.41;5052122;28;19920;-88
2023/08/02 07:36:01;;;;;;;;;;;;;;;35.66;28.84;97258.97;5052175;28;19917;-88
2023/08/02 07:38:27;;;;;;;;;;;;;;;35.91;29.40;97261.31;5053974;28;19928;-88
2023/08/02 07:40:53;;;;;;;;;;;;;;;36.22;28.11;97264.91;5072373;28;19939;-88
2023/08/02 07:43:19;;;;;;;;;;;;;;;36.00;28.72;97263.06;5072095;28;20011;-88
2023/08/02 07:45:45;;;;;;;;;;;;;;;35.72;26.51;97257.59;5072162;28;19999;-89
2023/08/02 07:48:11;;;;;;;;;;;;;;;35.42;29.06;97263.28;5071072;27;20384;-89
2023/08/02 07:50:39;;;;;;;;;;;;;;;35.54;27.84;97264.00;5051879;28;19921;-89
2023/08/02 07:53:05;;;;;;;;;;;;;;;35.05;27.32;97268.75;5051923;28;20384;-88
2023/08/02 07:55:31;;;;;;;;;;;;;;;35.19;28.62;97267.63;5053288;28;19917;-88
2023/08/02 07:57:57;;;;;;;;;;;;;;;35.29;29.96;97263.13;5072660;28;19933;-88
2023/08/02 08:00:25;;;;;;;;;;;;;;;35.54;29.03;97255.44;5073877;28;19916;-88
2023/08/02 08:02:51;;;;;;;;;;;;;;;35.95;29.15;97255.28;5072816;27;19923;-88
2023/08/02 08:05:17;;;;;;;;;;;;;;;36.40;28.28;97247.78;5071708;28;19917;-89
2023/08/02 08:07:43;;;;;;;;;;;;;;;36.44;30.39;97245.38;5071838;28;19917;-88
2023/08/02 08:10:09;;;;;;;;;;;;;;;36.65;28.80;97257.09;5071750;28;19920;-88
2023/08/02 08:12:35;;;;;;;;;;;;;;;36.72;27.58;97268.72;5068056;28;19921;-88
2023/08/02 08:15:01;;;;;;;;;;;;;;;36.74;28.53;97271.78;5051561;28;19921;-88
2023/08/02 08:17:27;;;;;;;;;;;;;;;36.78;28.91;97270.72;5051427;28;19971;-88
2023/08/02 08:19:53;;;;;;;;;;;;;;;36.91;27.43;97268.75;5050195;28;20262;-89
2023/08/02 08:22:21;;;;;;;;;;;;;;;36.89;28.57;97268.47;5051419;28;20393;-88
2023/08/02 08:24:47;;;;;;;;;;;;;;;36.83;29.39;97264.16;5051638;28;19921;-89
2023/08/02 08:27:13;;;;;;;;;;;;;;;36.84;27.67;97257.88;5051292;28;19920;-88
2023/08/02 08:29:39;;;;;;;;;;;;;;;36.79;28.61;97255.09;5051972;28;19917;-88
2023/08/02 08:32:05;;;;;;;;;;;;;;;34.78;28.93;97243.97;5051136;28;20494;-88
2023/08/02 08:34:31;;;;;;;;;;;;;;;35.20;29.00;97246.31;5051297;28;19917;-88
2023/08/02 08:36:57;;;;;;;;;;;;;;;35.30;28.57;97249.63;5051297;28;19980;-88
2023/08/02 08:39:23;;;;;;;;;;;;;;;35.39;27.71;97247.22;5060299;28;19916;-88
2023/08/02 08:41:49;;;;;;;;;;;;;;;35.26;28.79;97246.28;5071046;28;19920;-88
2023/08/02 08:44:15;;;;;;;;;;;;;;;35.36;29.12;97250.34;5071098;28;19924;-88
2023/08/02 08:46:42;;;;;;;;;;;;;;;35.69;29.86;97250.06;5066606;28;19917;-88
2023/08/02 08:49:08;;;;;;;;;;;;;;;36.09;26.58;97251.25;5051112;28;20430;-87
2023/08/02 08:51:34;;;;;;;;;;;;;;;35.92;28.33;97239.97;5050960;28;19956;-88
2023/08/02 08:54:03;;;;;;;;;;;;;;;35.77;27.09;97241.69;5051201;28;19925;-87
2023/08/02 08:56:32;;;;;;;;;;;;;;;35.73;27.87;97238.38;5050956;28;20019;-87
2023/08/02 08:59:01;;;;;;;;;;;;;;;35.54;30.07;97246.88;5050920;28;19965;-88
2023/08/02 09:01:27;;;;;;;;;;;;;;;35.39;32.35;97238.66;5050629;28;19920;-88
2023/08/02 09:03:55;;;;;;;;;;;;;;;35.56;28.97;97237.75;5051343;28;19916;-87
2023/08/02 09:06:22;;;;;;;;;;;;;;;35.72;28.40;97248.25;5050768;28;19917;-88
2023/08/02 09:08:48;;;;;;;;;;;;;;;36.06;29.57;97238.81;5050842;28;20356;-87
2023/08/02 09:11:17;;;;;;;;;;;;;;;36.34;29.01;97240.59;5050661;28;19952;-87
2023/08/02 09:13:43;;;;;;;;;;;;;;;36.48;29.16;97245.13;5050655;28;19927;-87
2023/08/02 09:16:13;;;;;;;;;;;;;;;36.42;29.67;97238.66;5050517;28;19917;-87
2023/08/02 09:18:45;;;;;;;;;;;;;;;36.87;27.10;97238.84;5050917;28;19921;-87
2023/08/02 09:21:14;;;;;;;;;;;;;;;36.63;29.55;97237.63;5051144;28;19921;-87
2023/08/02 09:23:45;;;;;;;;;;;;;;;36.81;28.66;97236.06;5050496;28;19970;-87
2023/08/02 09:26:15;;;;;;;;;;;;;;;36.45;29.55;97237.59;5050379;28;19924;-88
2023/08/02 09:29:00;;;;;;;;;;;;;;;36.43;29.80;97240.22;5050336;28;19924;-87
2023/08/02 09:31:27;;;;;;;;;;;;;;;36.97;30.07;97234.31;5050142;28;19917;-87
2023/08/02 09:33:54;;;;;;;;;;;;;;;37.31;30.48;97236.13;5050536;28;19945;-87
2023/08/02 09:36:27;;;;;;;;;;;;;;;37.81;29.27;97229.53;5050432;28;20361;-87
2023/08/02 09:38:54;;;;;;;;;;;;;;;38.08;27.31;97230.34;5063688;28;20293;-87
2023/08/02 09:41:24;;;;;;;;;;;;;;;38.19;29.15;97232.22;5070273;28;20289;-87
2023/08/02 09:43:51;;;;;;;;;;;;;;;38.26;28.66;97226.59;5069934;28;19920;-87
2023/08/02 09:46:28;;;;;;;;;;;;;;;38.34;28.65;97229.59;5070334;28;20034;-87
2023/08/02 09:48:57;;;;;;;;;;;;;;;38.55;26.77;97225.50;5070149;28;19912;-87
2023/08/02 09:51:39;;;;;;;;;;;;;;;38.62;29.26;97224.81;5070180;28;20300;-87
2023/08/02 09:54:06;;;;;;;;;;;;;;;38.71;27.54;97217.88;5070345;28;20273;-88
2023/08/02 09:56:34;;;;;;;;;;;;;;;38.64;25.11;97219.31;5069617;27;19916;-87
2023/08/02 09:59:00;;;;;;;;;;;;;;;38.10;28.51;97224.84;5069860;28;19957;-87
2023/08/02 10:01:28;;;;;;;;;;;;;;;37.83;29.45;97206.09;5070034;28;20007;-85
2023/08/02 10:03:55;;;;;;;;;;;;;;;37.41;29.72;97207.88;5069942;28;20034;-87
2023/08/02 10:06:40;;;;;;;;;;;;;;;37.85;28.13;97218.56;5069995;27;20377;-86
2023/08/02 10:09:08;;;;;;;;;;;;;;;37.63;27.36;97213.19;5070169;27;20061;-86
2023/08/02 10:11:49;;;;;;;;;;;;;;;37.16;26.33;97207.19;5068943;27;19946;-86
2023/08/02 10:14:15;;;;;;;;;;;;;;;37.59;28.01;97212.75;5068745;28;20292;-87
2023/08/02 10:16:42;;;;;;;;;;;;;;;36.99;26.19;97203.06;5070026;28;19971;-86
2023/08/02 10:19:11;;;;;;;;;;;;;;;37.22;28.58;97204.25;5069865;28;19917;-87
2023/08/02 10:21:37;;;;;;;;;;;;;;;37.96;29.71;97206.88;5069981;28;19916;-87
2023/08/02 10:24:04;;;;;;;;;;;;;;;38.46;26.66;97202.97;5067674;28;19952;-87
2023/08/02 10:26:30;;;;;;;;;;;;;;;38.83;27.76;97201.16;5049797;28;19916;-86
2023/08/02 10:28:57;;;;;;;;;;;;;;;39.04;27.49;97196.25;5050122;28;20385;-86
2023/08/02 10:31:23;;;;;;;;;;;;;;;38.99;27.04;97197.91;5049791;28;20377;-87
2023/08/02 10:33:49;;;;;;;;;;;;;;;39.16;27.51;97197.53;5049812;28;19992;-86
2023/08/02 10:36:15;;;;;;;;;;;;;;;38.75;30.29;97192.47;5049747;28;19917;-86
2023/08/02 10:38:41;;;;;;;;;;;;;;;38.41;27.40;97195.28;5062432;28;19916;-86
2023/08/02 10:41:09;;;;;;;;;;;;;;;38.18;27.08;97184.81;5073063;28;19927;-86
2023/08/02 10:43:53;;;;;;;;;;;;;;;38.29;28.24;97176.00;5072716;28;19920;-86
2023/08/02 10:46:22;;;;;;;;;;;;;;;38.59;27.69;97187.84;5063626;28;20004;-86
2023/08/02 10:48:49;;;;;;;;;;;;;;;38.57;26.03;97173.28;5052885;28;19935;-85
2023/08/02 10:51:37;;;;;;;;;;;;;;;38.77;27.58;97177.56;5052942;28;19917;-86
2023/08/02 10:54:16;;;;;;;;;;;;;;;39.22;25.16;97163.69;5053191;28;19920;-86
2023/08/02 10:56:51;;;;;;;;;;;;;;;39.42;24.73;97160.03;5052419;28;19917;-86
2023/08/02 10:59:17;;;;;;;;;;;;;;;39.26;24.22;97158.38;5053015;28;19912;-86
2023/08/02 11:01:56;;;;;;;;;;;;;;;39.23;26.31;97157.38;5053136;28;19924;-86
2023/08/02 11:04:23;;;;;;;;;;;;;;;39.32;27.68;97154.03;5061015;28;19921;-86
2023/08/02 11:06:49;;;;;;;;;;;;;;;39.38;25.22;97153.88;5072878;28;19974;-86
2023/08/02 11:09:15;;;;;;;;;;;;;;;39.28;23.22;97149.97;5072757;28;20414;-86
2023/08/02 11:11:41;;;;;;;;;;;;;;;39.14;24.00;97149.22;5072323;27;19959;-86
2023/08/02 11:14:07;;;;;;;;;;;;;;;39.06;23.48;97142.66;5072724;28;19928;-85
2023/08/02 11:16:40;;;;;;;;;;;;;;;39.04;23.43;97144.53;5072605;28;19948;-86
2023/08/02 11:19:10;;;;;;;;;;;;;;;39.36;24.13;97145.06;5072646;28;20296;-86
2023/08/02 11:21:36;;;;;;;;;;;;;;;39.54;23.90;97138.28;5072282;28;19917;-86
2023/08/02 11:24:03;;;;;;;;;;;;;;;39.77;23.38;97150.75;5072222;28;19917;-86
2023/08/02 11:26:30;;;;;;;;;;;;;;;39.37;24.24;97150.22;5072138;28;20266;-86
2023/08/02 11:28:56;;;;;;;;;;;;;;;39.24;24.02;97144.56;5072341;28;20384;-86
2023/08/02 11:31:25;;;;;;;;;;;;;;;39.04;28.61;97135.94;5072257;28;20284;-86
2023/08/02 11:33:52;;;;;;;;;;;;;;;38.57;26.16;97145.38;5072382;28;20441;-86
2023/08/02 11:36:18;;;;;;;;;;;;;;;38.64;27.15;97136.09;5071008;28;20019;-86
2023/08/02 11:38:44;;;;;;;;;;;;;;;38.60;24.19;97141.38;5070801;27;19981;-85
2023/08/02 11:41:20;;;;;;;;;;;;;;;38.60;28.06;97143.50;5072038;28;19956;-86
2023/08/02 11:43:47;;;;;;;;;;;;;;;38.81;29.58;97129.97;5072315;27;19972;-86
2023/08/02 11:46:18;;;;;;;;;;;;;;;38.97;26.39;97133.75;5072366;27;20333;-86
2023/08/02 11:48:44;;;;;;;;;;;;;;;38.59;24.50;97139.84;5072186;27;19912;-86
2023/08/02 11:51:11;;;;;;;;;;;;;;;38.55;23.28;97139.44;5071473;28;19965;-87
2023/08/02 11:53:48;;;;;;;;;;;;;;;38.78;21.54;97136.81;5066699;28;19924;-86
2023/08/02 11:56:14;;;;;;;;;;;;;;;38.42;31.22;97139.44;5051638;28;19917;-86
2023/08/02 11:58:41;;;;;;;;;;;;;;;37.74;33.49;97132.00;5052000;28;20373;-86
2023/08/02 12:01:07;;;;;;;;;;;;;;;38.07;25.63;97134.19;5052075;28;19956;-87
2023/08/02 12:03:33;;;;;;;;;;;;;;;38.46;26.56;97130.50;5051836;28;19917;-86
2023/08/02 12:06:00;;;;;;;;;;;;;;;39.16;26.84;97126.50;5054832;28;20019;-87
2023/08/02 12:08:26;;;;;;;;;;;;;;;39.63;27.13;97122.69;5060242;28;19917;-86
2023/08/02 12:10:52;;;;;;;;;;;;;;;39.58;23.20;97121.50;5069310;28;19921;-87
2023/08/02 12:13:18;;;;;;;;;;;;;;;39.69;26.45;97118.31;5071523;28;19928;-86
2023/08/02 12:15:56;;;;;;;;;;;;;;;39.51;25.81;97119.31;5072219;27;19991;-86
2023/08/02 12:18:22;;;;;;;;;;;;;;;39.55;26.80;97113.97;5071884;28;19916;-86
2023/08/02 12:20:48;;;;;;;;;;;;;;;39.07;26.07;97106.09;5071763;28;19928;-86
2023/08/02 12:23:30;;;;;;;;;;;;;;;38.77;28.91;97109.44;5055438;28;20000;-86
2023/08/02 12:25:56;;;;;;;;;;;;;;;38.96;29.39;97112.09;5051412;28;20480;-86
2023/08/02 12:28:22;;;;;;;;;;;;;;;39.05;28.18;97114.50;5050933;28;19944;-86
2023/08/02 12:31:01;;;;;;;;;;;;;;;39.07;26.51;97112.59;5051317;28;19942;-86
2023/08/02 12:33:27;;;;;;;;;;;;;;;38.95;27.66;97105.63;5051549;28;19917;-87
2023/08/02 12:35:53;;;;;;;;;;;;;;;38.79;29.01;97103.91;5051232;28;19917;-86
2023/08/02 12:38:19;;;;;;;;;;;;;;;38.75;30.46;97102.72;5068969;28;19916;-86
2023/08/02 12:40:46;;;;;;;;;;;;;;;38.80;30.41;97102.59;5071297;28;19965;-86
2023/08/02 12:43:12;;;;;;;;;;;;;;;39.23;32.11;97097.06;5071084;28;19958;-87
2023/08/02 12:45:38;;;;;;;;;;;;;;;39.46;27.68;97084.97;5057630;27;19967;-86
2023/08/02 12:48:04;;;;;;;;;;;;;;;38.96;28.54;97078.44;5049882;28;19952;-87